This is the latest recevied weather packets stored in our database for station/object DG2GGP-11. If no packets are shown the sender has not sent any weather packets the latest 1 day(s).
| Time | Temp. | Humidity | Pressure | Rain* | Wind** | Luminosity | Snow |
|---|---|---|---|---|---|---|---|
| 1778086157 | 9.44° C | 86% | 1008.4 hPa | 0 mm | - | 1 W/m² | - |
| 1778085557 | 9.44° C | 85% | 1008.4 hPa | 0 mm | - | 2 W/m² | - |
| 1778081357 | 10.56° C | 85% | 1008.3 hPa | 0 mm | - | 2 W/m² | - |
| 1778080757 | 10.56° C | 85% | 1008.2 hPa | 0 mm | - | 3 W/m² | - |
| 1778080157 | 10.56° C | 84% | 1008.2 hPa | 0 mm | - | 4 W/m² | - |
| 1778078957 | 10.56° C | 83% | 1008 hPa | 0 mm | - | 4 W/m² | - |
| 1778077757 | 11.11° C | 83% | 1007.8 hPa | 0 mm | - | 5 W/m² | - |
| 1778076557 | 11.11° C | 83% | 1007.6 hPa | 0 mm | - | 4 W/m² | - |
| 1778075957 | 11.67° C | 84% | 1007.4 hPa | 0 mm | - | 4 W/m² | - |
| 1778075357 | 11.67° C | 84% | 1007.3 hPa | 0 mm | - | 5 W/m² | - |
| 1778074757 | 11.67° C | 84% | 1007.3 hPa | 0 mm | - | 6 W/m² | - |
| 1778074157 | 11.67° C | 84% | 1007.2 hPa | 0 mm | - | 4 W/m² | - |
| 1778072957 | 11.67° C | 85% | 1007.2 hPa | 0 mm | - | 6 W/m² | - |
| 1778072357 | 11.67° C | 85% | 1007.2 hPa | 0 mm | - | 7 W/m² | - |
| 1778071757 | 11.67° C | 83% | 1007.2 hPa | 0 mm | - | 5 W/m² | - |
| 1778070557 | 11.67° C | 82% | 1007 hPa | 0 mm | - | 5 W/m² | - |
| 1778068757 | 12.78° C | 76% | 1006.9 hPa | 0 mm | - | 7 W/m² | - |
| 1778068157 | 13.33° C | 71% | 1006.8 hPa | 0 mm | - | 4 W/m² | - |
| 1778067557 | 14.44° C | 67% | 1006.6 hPa | 0 mm | - | 5 W/m² | - |
| 1778066957 | 15° C | 67% | 1006.5 hPa | 0 mm | - | 12 W/m² | - |
| 1778066357 | 15.56° C | 67% | 1006.4 hPa | 0 mm | - | 17 W/m² | - |
| 1778065757 | 15.56° C | 66% | 1006.4 hPa | 0 mm | - | 22 W/m² | - |
| 1778064557 | 15° C | 69% | 1006.5 hPa | 0 mm | - | 49 W/m² | - |
| 1778063957 | 15° C | 70% | 1006.6 hPa | 0 mm | - | 28 W/m² | - |
| 1778050757 | 11.11° C | 86% | 1006.9 hPa | 0 mm | - | 17 W/m² | - |
* Rain latest hour (hover to see other rain measurements)
** Current wind speed in m/s (hover to see current wind gust speed)